createdAt,value
2022-10-01T00:00:29.626Z,11.59
2022-10-01T00:02:55.772Z,11.64
2022-10-01T00:05:22.005Z,11.66
2022-10-01T00:07:48.110Z,11.70
2022-10-01T00:10:14.209Z,11.83
2022-10-01T00:12:40.314Z,11.66
2022-10-01T00:15:07.116Z,11.68
2022-10-01T00:17:34.287Z,11.61
2022-10-01T00:20:00.420Z,11.61
2022-10-01T00:22:26.540Z,11.68
2022-10-01T00:24:52.643Z,11.73
2022-10-01T00:27:18.748Z,11.70
2022-10-01T00:29:44.831Z,11.82
2022-10-01T00:32:10.910Z,11.70
2022-10-01T00:34:37.015Z,11.63
2022-10-01T00:37:03.116Z,11.62
2022-10-01T00:39:29.228Z,11.58
2022-10-01T00:41:55.838Z,11.60
2022-10-01T00:44:21.920Z,11.70
2022-10-01T00:46:48.013Z,11.58
2022-10-01T00:49:14.130Z,11.52
2022-10-01T00:51:40.253Z,11.51
2022-10-01T00:54:06.365Z,11.56
2022-10-01T00:56:32.521Z,11.67
2022-10-01T00:58:58.601Z,11.60
2022-10-01T01:01:24.747Z,11.62
2022-10-01T01:03:50.905Z,11.51
2022-10-01T01:06:17.001Z,11.62
2022-10-01T01:08:43.097Z,11.65
2022-10-01T01:11:09.291Z,11.47
2022-10-01T01:13:35.423Z,11.52
2022-10-01T01:16:01.596Z,11.64
2022-10-01T01:18:27.758Z,11.62
2022-10-01T01:20:53.831Z,11.68
2022-10-01T01:23:19.918Z,11.72
2022-10-01T01:25:46.042Z,11.60
2022-10-01T01:28:12.264Z,11.59
2022-10-01T01:30:38.720Z,11.68
2022-10-01T01:33:04.862Z,11.66
2022-10-01T01:35:30.954Z,11.55
2022-10-01T01:37:57.045Z,11.56
2022-10-01T01:40:23.157Z,11.57
2022-10-01T01:42:49.239Z,11.40
2022-10-01T01:45:15.327Z,11.31
2022-10-01T01:47:41.709Z,11.22
2022-10-01T01:50:07.801Z,11.14
2022-10-01T01:52:33.894Z,11.27
2022-10-01T01:55:00.004Z,11.15
2022-10-01T01:57:26.104Z,11.06
2022-10-01T01:59:52.191Z,11.20
2022-10-01T02:02:18.309Z,10.90
2022-10-01T02:04:44.415Z,10.91
2022-10-01T02:07:10.496Z,10.91
2022-10-01T02:09:36.629Z,10.94
2022-10-01T02:12:02.704Z,11.01
2022-10-01T02:14:28.776Z,10.85
2022-10-01T02:16:55.241Z,10.93
2022-10-01T02:19:21.332Z,10.71
2022-10-01T02:21:47.432Z,10.87
2022-10-01T02:24:13.552Z,10.80
2022-10-01T02:26:39.730Z,10.75
2022-10-01T02:29:05.873Z,10.74
2022-10-01T02:31:32.269Z,10.62
2022-10-01T02:33:58.679Z,10.70
2022-10-01T02:36:24.944Z,10.63
2022-10-01T02:38:51.201Z,10.64
2022-10-01T02:41:17.368Z,10.56
2022-10-01T02:43:43.479Z,10.63
2022-10-01T02:46:09.730Z,10.59
2022-10-01T02:48:38.920Z,10.68
2022-10-01T02:51:05.113Z,10.69
2022-10-01T02:53:32.415Z,10.56
2022-10-01T02:55:58.605Z,10.62
2022-10-01T02:58:24.781Z,10.61
2022-10-01T03:00:51.112Z,10.56
2022-10-01T03:03:17.343Z,10.43
2022-10-01T03:05:43.433Z,10.37
2022-10-01T03:08:09.569Z,10.29
2022-10-01T03:10:35.701Z,10.32
2022-10-01T03:13:01.803Z,10.38
2022-10-01T03:15:27.956Z,10.23
2022-10-01T03:17:54.067Z,10.23
2022-10-01T03:20:20.408Z,10.25
2022-10-01T03:22:46.567Z,10.21
2022-10-01T03:25:12.665Z,10.16
2022-10-01T03:27:38.786Z,10.12
2022-10-01T03:30:04.916Z,10.11
2022-10-01T03:32:31.014Z,10.18
2022-10-01T03:34:57.108Z,10.28
2022-10-01T03:37:23.241Z,10.14
2022-10-01T03:39:49.688Z,10.11
2022-10-01T03:42:15.854Z,10.21
2022-10-01T03:44:41.994Z,10.18
2022-10-01T03:47:08.162Z,10.23
2022-10-01T03:49:34.274Z,10.27
2022-10-01T03:52:00.906Z,10.16
2022-10-01T03:54:27.060Z,10.15
2022-10-01T03:56:53.155Z,10.16
2022-10-01T03:59:19.371Z,10.22
2022-10-01T04:01:45.715Z,10.13
2022-10-01T04:04:13.386Z,10.16
2022-10-01T04:06:39.724Z,10.27
2022-10-01T04:09:06.257Z,10.20
2022-10-01T04:11:32.648Z,10.20
2022-10-01T04:13:58.995Z,10.12
2022-10-01T04:16:25.291Z,10.17
2022-10-01T04:18:51.700Z,10.13
2022-10-01T04:21:17.879Z,10.16
2022-10-01T04:23:43.999Z,10.23
2022-10-01T04:26:10.095Z,10.14
2022-10-01T04:28:36.253Z,10.23
2022-10-01T04:31:02.364Z,10.16
2022-10-01T04:33:28.453Z,10.19
2022-10-01T04:35:56.532Z,10.19
2022-10-01T04:38:22.688Z,10.15
2022-10-01T04:40:48.804Z,10.04
2022-10-01T04:43:15.065Z,10.12
2022-10-01T04:45:41.281Z,10.16
2022-10-01T04:48:07.481Z,10.29
2022-10-01T04:50:33.807Z,10.30
2022-10-01T04:52:59.961Z,10.35
2022-10-01T04:55:26.114Z,10.36
2022-10-01T04:57:52.317Z,10.37
2022-10-01T05:00:18.421Z,10.39
2022-10-01T05:02:45.995Z,10.37
2022-10-01T05:05:12.176Z,10.33
2022-10-01T05:07:38.724Z,10.36
2022-10-01T05:10:04.840Z,10.37
2022-10-01T05:12:31.082Z,10.42
2022-10-01T05:14:57.174Z,10.38
2022-10-01T05:17:23.285Z,10.37
2022-10-01T05:19:49.389Z,10.34
2022-10-01T05:22:15.473Z,10.54
2022-10-01T05:24:41.564Z,10.41
2022-10-01T05:27:07.704Z,10.47
2022-10-01T05:29:33.803Z,10.45
2022-10-01T05:31:59.915Z,10.50
2022-10-01T05:34:26.089Z,10.58
2022-10-01T05:36:52.170Z,10.49
2022-10-01T05:39:18.332Z,10.52
2022-10-01T05:41:44.445Z,10.48
2022-10-01T05:44:10.529Z,10.51
2022-10-01T05:46:36.616Z,10.47
2022-10-01T05:49:02.728Z,10.56
2022-10-01T05:51:28.951Z,10.62
2022-10-01T05:53:55.053Z,10.65
2022-10-01T05:56:21.218Z,10.65
2022-10-01T05:58:47.492Z,10.63
2022-10-01T06:01:13.617Z,10.72
2022-10-01T06:03:39.728Z,10.60
2022-10-01T06:06:05.816Z,10.64
2022-10-01T06:08:32.088Z,10.67
2022-10-01T06:10:58.200Z,10.62
2022-10-01T06:13:24.290Z,10.63
2022-10-01T06:15:50.373Z,10.66
2022-10-01T06:18:16.491Z,10.70
2022-10-01T06:20:42.589Z,10.68
2022-10-01T06:23:08.742Z,10.68
2022-10-01T06:25:34.917Z,10.66
2022-10-01T06:28:01.093Z,10.67
2022-10-01T06:30:27.347Z,10.72
2022-10-01T06:32:53.471Z,10.80
2022-10-01T06:35:19.567Z,10.70
2022-10-01T06:37:45.680Z,10.77
2022-10-01T06:40:11.822Z,10.73
2022-10-01T06:42:37.917Z,10.75
2022-10-01T06:45:04.036Z,10.75
2022-10-01T06:47:30.143Z,10.80
2022-10-01T06:49:56.216Z,10.82
2022-10-01T06:52:22.308Z,10.81
2022-10-01T06:54:48.408Z,10.75
2022-10-01T06:57:14.502Z,10.90
2022-10-01T06:59:40.597Z,10.80
2022-10-01T07:02:07.288Z,10.82
2022-10-01T07:04:33.409Z,10.79
2022-10-01T07:06:59.750Z,10.81
2022-10-01T07:09:25.946Z,10.87
2022-10-01T07:11:52.028Z,10.81
2022-10-01T07:14:18.116Z,10.83
2022-10-01T07:16:44.265Z,10.86
2022-10-01T07:19:10.489Z,10.86
2022-10-01T07:21:36.902Z,10.88
2022-10-01T07:24:03.383Z,10.93
2022-10-01T07:26:29.474Z,10.95
2022-10-01T07:28:55.609Z,11.00
2022-10-01T07:31:21.829Z,11.01
2022-10-01T07:33:48.022Z,11.02
2022-10-01T07:36:14.138Z,11.09
2022-10-01T07:38:40.241Z,11.07
2022-10-01T07:41:06.333Z,11.16
2022-10-01T07:43:32.416Z,11.27
2022-10-01T07:45:58.585Z,11.20
2022-10-01T07:48:24.747Z,11.23
2022-10-01T07:50:51.077Z,11.25
2022-10-01T07:53:17.215Z,11.30
2022-10-01T07:55:43.319Z,11.34
2022-10-01T07:58:09.415Z,11.33
2022-10-01T08:00:35.538Z,11.32
2022-10-01T08:03:01.629Z,11.26
2022-10-01T08:05:27.714Z,11.27
2022-10-01T08:07:53.874Z,11.31
2022-10-01T08:10:19.960Z,11.36
2022-10-01T08:12:46.065Z,11.35
2022-10-01T08:15:12.220Z,11.39
2022-10-01T08:17:38.405Z,11.41
2022-10-01T08:20:04.590Z,11.46
2022-10-01T08:22:31.213Z,11.57
2022-10-01T08:24:57.369Z,11.48
2022-10-01T08:27:23.478Z,11.46
2022-10-01T08:29:49.706Z,11.58
2022-10-01T08:32:15.909Z,11.58
2022-10-01T08:34:42.062Z,11.59
2022-10-01T08:37:08.204Z,11.56
2022-10-01T08:39:34.419Z,11.72
2022-10-01T08:42:00.667Z,11.84
2022-10-01T08:47:06.917Z,12.02
2022-10-01T08:49:35.455Z,12.11
2022-10-01T08:52:01.712Z,12.25
2022-10-01T08:54:27.815Z,12.38
2022-10-01T08:56:54.019Z,12.38
2022-10-01T08:59:24.077Z,12.32
2022-10-01T09:01:52.907Z,12.34
2022-10-01T09:04:19.180Z,12.30
2022-10-01T09:06:45.371Z,12.53
2022-10-01T09:09:11.524Z,12.50
2022-10-01T09:11:37.847Z,12.48
2022-10-01T09:14:04.156Z,12.53
2022-10-01T09:16:30.401Z,12.70
2022-10-01T09:18:56.607Z,12.68
2022-10-01T09:21:22.695Z,12.72
2022-10-01T09:23:48.826Z,12.69
2022-10-01T09:26:25.638Z,12.92
2022-10-01T09:28:51.990Z,12.91
2022-10-01T09:31:18.198Z,13.11
2022-10-01T09:33:44.345Z,13.25
2022-10-01T09:36:10.418Z,13.05
2022-10-01T09:38:36.525Z,12.96
2022-10-01T09:41:02.615Z,12.95
2022-10-01T09:43:28.697Z,13.01
2022-10-01T09:45:55.060Z,12.99
2022-10-01T09:48:22.721Z,13.15
2022-10-01T09:50:48.822Z,13.42
2022-10-01T09:53:14.945Z,13.44
2022-10-01T09:55:41.034Z,13.61
2022-10-01T09:58:07.118Z,13.57
2022-10-01T10:00:33.220Z,13.42
2022-10-01T10:02:59.389Z,13.34
2022-10-01T10:05:25.596Z,13.40
2022-10-01T10:07:51.712Z,13.44
2022-10-01T10:10:21.002Z,13.40
2022-10-01T10:12:49.465Z,13.38
2022-10-01T10:15:16.079Z,13.42
2022-10-01T10:17:42.169Z,13.29
2022-10-01T10:20:08.241Z,13.34
2022-10-01T10:22:34.352Z,13.33
2022-10-01T10:25:00.435Z,13.35
2022-10-01T10:27:26.528Z,13.25
2022-10-01T10:29:53.051Z,13.18
2022-10-01T10:32:19.154Z,13.11
2022-10-01T10:34:45.237Z,13.02
2022-10-01T10:37:11.346Z,13.04
2022-10-01T10:39:37.448Z,13.07
2022-10-01T10:42:03.548Z,12.99
2022-10-01T10:44:29.683Z,12.90
2022-10-01T10:46:55.870Z,12.91
2022-10-01T10:49:22.001Z,12.88
2022-10-01T10:51:48.116Z,12.97
2022-10-01T10:54:14.226Z,13.08
2022-10-01T10:56:40.321Z,13.27
2022-10-01T10:59:06.417Z,13.50
2022-10-01T11:01:32.739Z,13.59
2022-10-01T11:03:59.035Z,13.73
2022-10-01T11:06:25.135Z,13.77
2022-10-01T11:08:51.220Z,13.83
2022-10-01T11:11:17.304Z,13.82
2022-10-01T11:13:43.428Z,13.74
2022-10-01T11:16:09.554Z,13.78
2022-10-01T11:18:35.700Z,13.88
2022-10-01T11:21:01.815Z,13.96
2022-10-01T11:23:27.905Z,14.09
2022-10-01T11:25:54.009Z,14.09
2022-10-01T11:28:20.158Z,14.20
2022-10-01T11:30:46.304Z,14.21
2022-10-01T11:33:12.394Z,14.20
2022-10-01T11:35:38.487Z,14.26
2022-10-01T11:38:04.568Z,14.38
2022-10-01T11:40:30.665Z,14.43
2022-10-01T11:42:56.767Z,14.46
2022-10-01T11:45:22.852Z,14.46
2022-10-01T11:47:48.952Z,14.60
2022-10-01T11:50:15.047Z,14.74
2022-10-01T11:52:41.181Z,14.74
2022-10-01T11:55:07.284Z,15.04
2022-10-01T11:57:33.425Z,15.05
2022-10-01T11:59:59.505Z,15.17
2022-10-01T12:02:25.633Z,15.09
2022-10-01T12:04:51.753Z,15.23
2022-10-01T12:07:17.829Z,15.11
2022-10-01T12:09:43.926Z,15.24
2022-10-01T12:12:10.058Z,15.34
2022-10-01T12:14:36.145Z,15.37
2022-10-01T12:17:02.230Z,15.43
2022-10-01T12:19:28.384Z,15.54
2022-10-01T12:21:54.475Z,15.68
2022-10-01T12:24:20.569Z,15.57
2022-10-01T12:26:46.733Z,15.39
2022-10-01T12:29:12.826Z,15.28
2022-10-01T12:31:38.997Z,15.06
2022-10-01T12:34:05.192Z,14.99
2022-10-01T12:36:31.486Z,14.93
2022-10-01T12:38:57.946Z,14.93
2022-10-01T12:41:24.056Z,14.94
2022-10-01T12:43:50.194Z,15.15
2022-10-01T12:46:16.487Z,15.18
2022-10-01T12:48:42.726Z,15.09
2022-10-01T12:51:08.811Z,15.03
2022-10-01T12:53:34.916Z,14.75
2022-10-01T12:56:01.019Z,13.75
2022-10-01T12:58:27.113Z,13.25
2022-10-01T13:00:53.234Z,12.68
2022-10-01T13:03:19.518Z,12.42
2022-10-01T13:05:46.625Z,12.40
2022-10-01T13:08:12.817Z,12.46
2022-10-01T13:10:39.063Z,12.57
2022-10-01T13:13:05.198Z,12.53
2022-10-01T13:15:31.286Z,12.63
2022-10-01T13:17:57.426Z,12.69
2022-10-01T13:20:23.507Z,12.62
2022-10-01T13:22:49.666Z,12.64
2022-10-01T13:25:15.974Z,12.76
2022-10-01T13:27:42.093Z,12.94
2022-10-01T13:30:08.294Z,13.20
2022-10-01T13:32:34.925Z,13.22
2022-10-01T13:35:01.022Z,13.48
2022-10-01T13:37:27.123Z,13.62
2022-10-01T13:39:53.249Z,13.68
2022-10-01T13:42:19.356Z,13.72
2022-10-01T13:44:45.441Z,13.46
2022-10-01T13:47:11.546Z,13.53
2022-10-01T13:49:37.632Z,13.41
2022-10-01T13:52:03.723Z,13.27
2022-10-01T13:54:29.828Z,13.12
2022-10-01T13:56:55.919Z,13.00
2022-10-01T13:59:22.012Z,13.10
2022-10-01T14:01:48.140Z,13.15
2022-10-01T14:04:14.278Z,13.21
2022-10-01T14:06:40.368Z,13.32
2022-10-01T14:09:06.487Z,13.36
2022-10-01T14:11:32.577Z,13.42
2022-10-01T14:13:58.664Z,13.51
2022-10-01T14:16:24.817Z,13.61
2022-10-01T14:18:50.946Z,13.48
2022-10-01T14:21:17.049Z,13.32
2022-10-01T14:23:43.192Z,13.22
2022-10-01T14:26:09.281Z,13.26
2022-10-01T14:28:35.391Z,13.30
2022-10-01T14:31:01.996Z,13.36
2022-10-01T14:33:28.104Z,13.46
2022-10-01T14:35:54.207Z,13.42
2022-10-01T14:38:21.120Z,13.46
2022-10-01T14:40:47.220Z,13.64
2022-10-01T14:43:13.323Z,13.90
2022-10-01T14:45:39.439Z,14.10
2022-10-01T14:48:05.526Z,14.01
2022-10-01T14:50:31.603Z,14.55
2022-10-01T14:52:57.713Z,15.11
2022-10-01T14:55:23.802Z,15.22
2022-10-01T14:57:49.887Z,15.01
2022-10-01T15:00:16.012Z,14.79
2022-10-01T15:02:42.108Z,14.95
2022-10-01T15:05:08.240Z,15.30
2022-10-01T15:07:34.397Z,15.51
2022-10-01T15:10:00.486Z,15.63
2022-10-01T15:12:26.577Z,15.86
2022-10-01T15:14:52.677Z,15.49
2022-10-01T15:17:18.754Z,15.27
2022-10-01T15:19:44.845Z,15.28
2022-10-01T15:22:10.960Z,15.07
2022-10-01T15:24:37.039Z,14.88
2022-10-01T15:27:03.111Z,14.99
2022-10-01T15:29:29.232Z,13.97
2022-10-01T15:31:55.367Z,13.62
2022-10-01T15:34:21.468Z,13.25
2022-10-01T15:36:47.636Z,13.05
2022-10-01T15:39:13.748Z,12.92
2022-10-01T15:41:39.840Z,12.76
2022-10-01T15:44:05.979Z,12.74
2022-10-01T15:46:32.217Z,12.63
2022-10-01T15:48:58.476Z,12.55
2022-10-01T15:51:24.568Z,12.56
2022-10-01T15:53:50.653Z,12.44
2022-10-01T15:56:16.766Z,12.38
2022-10-01T15:58:42.892Z,12.24
2022-10-01T16:01:09.062Z,12.28
2022-10-01T16:03:35.203Z,12.21
2022-10-01T16:06:01.292Z,12.24
2022-10-01T16:08:27.360Z,12.97
2022-10-01T16:13:39.496Z,12.40
2022-10-01T16:16:05.700Z,12.27
2022-10-01T16:18:31.834Z,12.24
2022-10-01T16:20:57.958Z,12.19
2022-10-01T16:23:24.163Z,12.44
2022-10-01T16:25:50.239Z,12.36
2022-10-01T16:28:16.398Z,12.29
2022-10-01T16:30:42.533Z,12.28
2022-10-01T16:33:08.633Z,12.49
2022-10-01T16:35:34.793Z,12.63
2022-10-01T16:38:00.880Z,12.72
2022-10-01T16:40:26.959Z,12.77
2022-10-01T16:42:54.795Z,12.65
2022-10-01T16:45:21.025Z,12.60
2022-10-01T16:47:47.213Z,12.61
2022-10-01T16:50:13.382Z,12.75
2022-10-01T16:52:39.476Z,12.69
2022-10-01T16:55:05.642Z,12.68
2022-10-01T16:57:35.990Z,12.62
2022-10-01T17:00:02.075Z,12.58
2022-10-01T17:02:28.255Z,12.51
2022-10-01T17:04:54.409Z,12.55
2022-10-01T17:07:20.510Z,12.54
2022-10-01T17:09:46.588Z,12.45
2022-10-01T17:12:12.686Z,12.41
2022-10-01T17:14:38.779Z,12.42
2022-10-01T17:17:04.872Z,12.27
2022-10-01T17:19:30.991Z,12.17
2022-10-01T17:21:57.077Z,12.06
2022-10-01T17:24:23.177Z,12.05
2022-10-01T17:26:49.288Z,11.91
2022-10-01T17:29:15.381Z,11.86
2022-10-01T17:31:43.411Z,11.78
2022-10-01T17:34:09.543Z,11.73
2022-10-01T17:36:35.811Z,11.71
2022-10-01T17:39:02.074Z,11.70
2022-10-01T17:41:28.211Z,11.63
2022-10-01T17:43:54.291Z,11.57
2022-10-01T17:46:20.408Z,11.56
2022-10-01T17:48:46.551Z,11.56
2022-10-01T17:51:12.627Z,11.51
2022-10-01T17:53:42.588Z,11.51
2022-10-01T17:56:08.977Z,11.51
2022-10-01T17:58:35.056Z,11.48
2022-10-01T18:01:01.173Z,11.41
2022-10-01T18:03:27.317Z,11.42
2022-10-01T18:05:53.415Z,11.37
2022-10-01T18:08:29.419Z,11.37
2022-10-01T18:11:04.497Z,11.26
2022-10-01T18:13:30.589Z,11.32
2022-10-01T18:15:56.702Z,11.28
2022-10-01T18:19:51.391Z,11.28
2022-10-01T18:21:08.897Z,11.29
2022-10-01T18:23:34.994Z,11.22
2022-10-01T18:26:01.093Z,11.30
2022-10-01T18:28:27.254Z,11.27
2022-10-01T18:30:53.408Z,11.26
2022-10-01T18:33:19.498Z,11.24
2022-10-01T18:35:45.587Z,11.25
2022-10-01T18:38:11.696Z,11.20
2022-10-01T18:40:37.777Z,11.18
2022-10-01T18:43:03.868Z,11.23
2022-10-01T18:45:30.357Z,11.21
2022-10-01T18:47:56.503Z,11.21
2022-10-01T18:50:22.599Z,11.20
2022-10-01T18:52:48.715Z,11.17
2022-10-01T18:55:17.710Z,11.17
2022-10-01T18:57:46.970Z,11.19
2022-10-01T19:00:13.089Z,11.16
2022-10-01T19:02:39.174Z,11.13
2022-10-01T19:05:05.263Z,11.14
2022-10-01T19:07:31.390Z,11.07
2022-10-01T19:09:57.475Z,11.10
2022-10-01T19:12:23.568Z,11.07
2022-10-01T19:14:49.659Z,11.05
2022-10-01T19:17:15.757Z,11.13
2022-10-01T19:19:41.845Z,11.10
2022-10-01T19:22:07.945Z,11.10
2022-10-01T19:24:34.055Z,11.09
2022-10-01T19:27:00.149Z,11.07
2022-10-01T19:29:26.237Z,11.09
2022-10-01T19:31:52.415Z,11.03
2022-10-01T19:34:18.546Z,11.05
2022-10-01T19:36:44.648Z,11.02
2022-10-01T19:39:10.747Z,11.01
2022-10-01T19:41:36.845Z,10.96
2022-10-01T19:44:02.945Z,11.03
2022-10-01T19:46:29.054Z,11.00
2022-10-01T19:48:55.154Z,10.93
2022-10-01T19:51:21.249Z,10.95
2022-10-01T19:53:47.331Z,10.95
2022-10-01T19:56:13.435Z,10.92
2022-10-01T19:58:39.539Z,10.95
2022-10-01T20:01:05.677Z,10.95
2022-10-01T20:03:31.810Z,10.92
2022-10-01T20:05:57.912Z,10.89
2022-10-01T20:08:23.988Z,10.90
2022-10-01T20:10:50.093Z,10.95
2022-10-01T20:13:16.216Z,10.97
2022-10-01T20:15:42.313Z,11.17
2022-10-01T20:18:08.388Z,11.36
2022-10-01T20:20:34.487Z,11.35
2022-10-01T20:23:00.592Z,11.36
2022-10-01T20:25:26.669Z,11.33
2022-10-01T20:27:52.795Z,11.35
2022-10-01T20:30:18.896Z,11.38
2022-10-01T20:32:44.968Z,11.35
2022-10-01T20:35:11.086Z,11.36
2022-10-01T20:37:37.177Z,11.35
2022-10-01T20:40:03.263Z,11.35
2022-10-01T20:42:29.379Z,11.37
2022-10-01T20:44:55.460Z,11.36
2022-10-01T20:47:21.545Z,11.32
2022-10-01T20:49:47.988Z,11.30
2022-10-01T20:52:14.070Z,11.29
2022-10-01T20:54:40.146Z,11.25
2022-10-01T20:57:06.306Z,11.27
2022-10-01T20:59:32.398Z,11.28
2022-10-01T21:01:58.510Z,11.29
2022-10-01T21:04:24.666Z,11.29
2022-10-01T21:06:50.816Z,11.32
2022-10-01T21:09:16.977Z,11.34
2022-10-01T21:11:46.213Z,11.33
2022-10-01T21:14:12.318Z,11.30
2022-10-01T21:16:38.642Z,11.32
2022-10-01T21:19:04.829Z,11.34
2022-10-01T21:21:30.922Z,11.33
2022-10-01T21:23:57.142Z,11.32
2022-10-01T21:26:24.742Z,11.34
2022-10-01T21:28:50.969Z,11.31
2022-10-01T21:31:17.133Z,11.34
2022-10-01T21:33:43.277Z,11.35
2022-10-01T21:36:09.357Z,11.33
2022-10-01T21:38:35.428Z,11.37
2022-10-01T21:41:01.520Z,11.40
2022-10-01T21:43:27.607Z,11.36
2022-10-01T21:45:53.727Z,11.39
2022-10-01T21:48:19.840Z,11.38
2022-10-01T21:50:45.938Z,11.40
2022-10-01T21:53:12.022Z,11.38
2022-10-01T21:55:38.142Z,11.39
2022-10-01T21:58:04.220Z,11.38
2022-10-01T22:00:30.303Z,11.38
2022-10-01T22:02:56.418Z,11.40
2022-10-01T22:05:22.527Z,11.41
2022-10-01T22:07:48.617Z,11.42
2022-10-01T22:10:14.732Z,11.39
2022-10-01T22:12:40.810Z,11.40
2022-10-01T22:15:06.910Z,11.41
2022-10-01T22:17:32.998Z,11.41
2022-10-01T22:19:59.079Z,11.39
2022-10-01T22:22:25.149Z,11.40
2022-10-01T22:24:51.259Z,11.42
2022-10-01T22:27:17.339Z,11.43
2022-10-01T22:29:43.419Z,11.46
2022-10-01T22:32:09.515Z,11.46
2022-10-01T22:34:35.601Z,11.45
2022-10-01T22:37:01.683Z,11.43
2022-10-01T22:39:27.816Z,11.47
2022-10-01T22:41:53.912Z,11.49
2022-10-01T22:44:20.005Z,11.47
2022-10-01T22:46:46.114Z,11.49
2022-10-01T22:49:12.210Z,11.45
2022-10-01T22:51:38.311Z,11.44
2022-10-01T22:54:04.998Z,11.43
2022-10-01T22:56:31.106Z,11.47
2022-10-01T22:58:57.196Z,11.51
2022-10-01T23:01:23.645Z,11.53
2022-10-01T23:03:49.763Z,11.59
2022-10-01T23:06:15.851Z,11.63
2022-10-01T23:08:41.978Z,11.63
2022-10-01T23:11:08.064Z,11.67
2022-10-01T23:13:34.160Z,11.66
2022-10-01T23:16:00.341Z,11.70
2022-10-01T23:18:26.482Z,11.70
2022-10-01T23:20:52.571Z,11.79
2022-10-01T23:23:18.697Z,11.82
2022-10-01T23:25:44.783Z,11.87
2022-10-01T23:28:10.978Z,11.86
2022-10-01T23:30:37.148Z,11.83
2022-10-01T23:33:03.241Z,11.88
2022-10-01T23:35:29.322Z,11.89
2022-10-01T23:37:55.433Z,12.00
2022-10-01T23:40:21.511Z,12.05
2022-10-01T23:42:47.614Z,12.12
2022-10-01T23:45:13.731Z,12.12
2022-10-01T23:47:39.829Z,12.13
2022-10-01T23:50:05.909Z,12.12
2022-10-01T23:52:32.010Z,12.12
2022-10-01T23:54:58.097Z,12.12
2022-10-01T23:57:24.180Z,12.17
2022-10-01T23:59:50.629Z,12.20
